Time;durP1;ratioP1;P1;durP2;ratioP2;P2;SDS_P1;SDS_P2;PMS_P1;PMS_P2;Temp;Humidity;BMP_temperature;BMP_pressure;BME280_temperature;BME280_humidity;BME280_pressure;Samples;Min_cycle;Max_cycle;Signal;HPM_P1;HPM_P2
2023/08/04 00:00:34;;;;;;;12.07;5.55;;;15.40;99.90;;;;;;5039770;28;20057;-92
2023/08/04 00:03:00;;;;;;;11.88;5.30;;;15.40;99.90;;;;;;5041364;28;20025;-94
2023/08/04 00:05:26;;;;;;;14.95;6.57;;;15.40;99.90;;;;;;5042313;28;20117;-93
2023/08/04 00:07:51;;;;;;;14.05;5.80;;;15.40;99.90;;;;;;5039387;28;20025;-93
2023/08/04 00:10:18;;;;;;;13.05;5.30;;;15.40;99.90;;;;;;5039043;28;20124;-93
2023/08/04 00:12:43;;;;;;;10.70;6.05;;;15.40;99.90;;;;;;5039482;28;20113;-92
2023/08/04 00:15:09;;;;;;;8.40;5.32;;;15.40;99.90;;;;;;5041388;28;20071;-92
2023/08/04 00:17:37;;;;;;;13.05;5.60;;;15.40;99.90;;;;;;5043216;28;20053;-92
2023/08/04 00:20:04;;;;;;;10.63;5.72;;;15.40;99.90;;;;;;5041938;28;20033;-93
2023/08/04 00:22:30;;;;;;;13.85;5.82;;;15.30;99.90;;;;;;5039477;28;20072;-92
2023/08/04 00:24:55;;;;;;;13.63;5.53;;;15.30;99.90;;;;;;5037841;28;20049;-94
2023/08/04 00:27:21;;;;;;;14.48;5.60;;;15.30;99.90;;;;;;5037335;28;20064;-94
2023/08/04 00:29:46;;;;;;;11.55;5.07;;;15.20;99.90;;;;;;5036400;28;20256;-95
2023/08/04 00:32:12;;;;;;;11.20;5.28;;;15.20;99.90;;;;;;5036275;28;20032;-94
2023/08/04 00:34:38;;;;;;;15.35;5.85;;;15.20;99.90;;;;;;5035310;28;20115;-94
2023/08/04 00:37:05;;;;;;;12.95;5.90;;;15.20;99.90;;;;;;5035924;28;20025;-94
2023/08/04 00:39:30;;;;;;;12.10;4.97;;;15.20;99.90;;;;;;5044195;28;20025;-94
2023/08/04 00:41:56;;;;;;;8.00;4.75;;;15.10;99.90;;;;;;5038809;28;20026;-94
2023/08/04 00:44:22;;;;;;;18.60;5.25;;;15.20;99.90;;;;;;5036294;28;20045;-94
2023/08/04 00:46:48;;;;;;;11.50;6.38;;;15.10;99.90;;;;;;5036040;28;20116;-93
2023/08/04 00:49:14;;;;;;;9.10;4.82;;;15.10;99.90;;;;;;5035570;28;20064;-92
2023/08/04 00:51:40;;;;;;;15.30;4.95;;;15.10;99.90;;;;;;5035546;28;20037;-93
2023/08/04 00:54:06;;;;;;;6.80;4.15;;;15.10;99.90;;;;;;5035683;28;20117;-94
2023/08/04 00:56:32;;;;;;;14.60;4.72;;;15.10;99.90;;;;;;5035747;28;20479;-95
2023/08/04 00:58:58;;;;;;;9.88;4.43;;;15.10;99.90;;;;;;5035295;28;20039;-94
2023/08/04 01:01:24;;;;;;;12.80;4.07;;;15.10;99.90;;;;;;5035094;28;20030;-95
2023/08/04 01:03:51;;;;;;;12.70;4.57;;;15.10;99.90;;;;;;5035451;28;20507;-93
2023/08/04 01:06:42;;;;;;;13.38;4.45;;;15.10;99.90;;;;;;5035454;28;20048;-93
2023/08/04 01:09:14;;;;;;;13.73;5.68;;;15.10;99.90;;;;;;5034312;28;20022;-93
2023/08/04 01:12:07;;;;;;;14.68;4.63;;;15.10;99.90;;;;;;5034533;28;20025;-93
2023/08/04 01:14:35;;;;;;;11.80;4.55;;;15.10;99.90;;;;;;5034298;28;20036;-94
2023/08/04 01:17:20;;;;;;;12.70;4.53;;;15.10;99.90;;;;;;5034703;28;20025;-93
2023/08/04 01:19:46;;;;;;;13.23;4.60;;;15.10;99.90;;;;;;5032931;28;20099;-95
2023/08/04 01:22:11;;;;;;;11.15;4.80;;;15.10;99.90;;;;;;5037648;28;20474;-93
2023/08/04 01:24:37;;;;;;;17.13;4.55;;;15.10;99.90;;;;;;5036230;28;20049;-93
2023/08/04 01:27:03;;;;;;;8.48;4.30;;;15.10;99.90;;;;;;5034638;28;20032;-93
2023/08/04 01:29:30;;;;;;;14.93;4.43;;;15.10;99.90;;;;;;5033974;28;20025;-93
2023/08/04 01:31:57;;;;;;;12.60;4.57;;;15.10;99.90;;;;;;5034120;28;20104;-91
2023/08/04 01:34:23;;;;;;;12.85;5.07;;;15.10;99.90;;;;;;5034001;28;20489;-93
2023/08/04 01:36:48;;;;;;;16.08;5.20;;;15.10;99.90;;;;;;5049853;28;20025;-92
2023/08/04 01:39:14;;;;;;;17.15;5.70;;;15.10;99.90;;;;;;5035059;28;20032;-94
2023/08/04 01:41:40;;;;;;;21.23;6.35;;;15.00;99.90;;;;;;5034176;28;20497;-94
2023/08/04 01:44:05;;;;;;;14.35;5.05;;;15.00;99.90;;;;;;5033714;28;20037;-93
2023/08/04 01:46:31;;;;;;;16.13;5.05;;;15.00;99.90;;;;;;5034327;28;20036;-94
2023/08/04 01:48:57;;;;;;;15.48;4.88;;;15.00;99.90;;;;;;5033789;28;20044;-92
2023/08/04 01:51:22;;;;;;;13.95;5.70;;;15.00;99.90;;;;;;5033406;28;20032;-93
2023/08/04 01:53:48;;;;;;;11.57;5.25;;;15.00;99.90;;;;;;5033673;28;20025;-93
2023/08/04 01:56:13;;;;;;;18.77;4.75;;;15.00;99.90;;;;;;5034291;28;20027;-92
2023/08/04 01:58:39;;;;;;;13.25;4.15;;;15.00;99.90;;;;;;5034668;28;20033;-93
2023/08/04 02:01:04;;;;;;;14.55;4.20;;;15.00;99.90;;;;;;5035100;28;20029;-93
2023/08/04 02:03:33;;;;;;;13.40;4.15;;;14.90;99.90;;;;;;5033698;28;20040;-94
2023/08/04 02:05:58;;;;;;;10.02;3.58;;;14.90;99.90;;;;;;5033194;28;20022;-93
2023/08/04 02:08:24;;;;;;;15.10;4.18;;;14.90;99.90;;;;;;5033870;28;20056;-93
2023/08/04 02:10:50;;;;;;;13.32;3.95;;;14.90;99.90;;;;;;5033544;28;20505;-92
2023/08/04 02:13:16;;;;;;;9.02;4.60;;;14.90;99.90;;;;;;5033052;28;20471;-93
2023/08/04 02:15:42;;;;;;;15.20;3.90;;;14.90;99.90;;;;;;5033083;28;20025;-93
2023/08/04 02:18:07;;;;;;;11.10;3.83;;;14.90;99.90;;;;;;5033760;28;20045;-93
2023/08/04 02:20:33;;;;;;;14.55;4.28;;;14.90;99.90;;;;;;5033138;28;20335;-94
2023/08/04 02:22:59;;;;;;;15.32;3.90;;;14.90;99.90;;;;;;5033432;28;20041;-93
2023/08/04 02:25:24;;;;;;;9.13;3.30;;;14.90;99.90;;;;;;5033869;28;20025;-93
2023/08/04 02:27:50;;;;;;;12.23;3.72;;;14.90;99.90;;;;;;5033069;28;20025;-92
2023/08/04 02:30:16;;;;;;;7.93;3.67;;;14.90;99.90;;;;;;5033293;28;20433;-94
2023/08/04 02:32:41;;;;;;;10.35;3.90;;;14.90;99.90;;;;;;5032841;28;20017;-92
2023/08/04 02:35:07;;;;;;;13.68;3.35;;;14.90;99.90;;;;;;5032911;28;20025;-93
2023/08/04 02:37:33;;;;;;;11.05;3.45;;;14.90;99.90;;;;;;5033204;28;20014;-93
2023/08/04 02:39:59;;;;;;;13.40;3.90;;;14.90;99.90;;;;;;5032986;28;20040;-93
2023/08/04 02:42:24;;;;;;;13.80;3.60;;;14.90;99.90;;;;;;5038482;28;20040;-93
2023/08/04 02:44:54;;;;;;;9.65;3.67;;;14.80;99.90;;;;;;5039731;28;20041;-92
2023/08/04 02:47:20;;;;;;;15.03;4.60;;;14.80;99.90;;;;;;5038103;28;20025;-92
2023/08/04 02:49:46;;;;;;;13.35;3.97;;;14.80;99.90;;;;;;5037115;28;20471;-92
2023/08/04 02:52:14;;;;;;;15.82;3.95;;;14.80;99.90;;;;;;5035177;28;20029;-92
2023/08/04 02:54:40;;;;;;;14.73;4.18;;;14.80;99.90;;;;;;5034426;28;20056;-93
2023/08/04 02:57:06;;;;;;;17.92;3.63;;;14.70;99.90;;;;;;5032999;28;20120;-92
2023/08/04 02:59:32;;;;;;;15.50;4.35;;;14.80;99.90;;;;;;5032627;28;20068;-93
2023/08/04 03:01:57;;;;;;;17.20;3.60;;;14.70;99.90;;;;;;5033005;28;20087;-94
2023/08/04 03:04:23;;;;;;;15.52;3.85;;;14.70;99.90;;;;;;5032644;28;20095;-93
2023/08/04 03:06:49;;;;;;;21.30;4.53;;;14.70;99.90;;;;;;5032322;28;20022;-93
2023/08/04 03:09:14;;;;;;;26.38;4.15;;;14.70;99.90;;;;;;5032319;28;20041;-93
2023/08/04 03:11:40;;;;;;;11.27;3.53;;;14.70;99.90;;;;;;5032432;28;20025;-95
2023/08/04 03:14:06;;;;;;;12.25;3.80;;;14.70;99.90;;;;;;5032260;28;20471;-93
2023/08/04 03:16:31;;;;;;;13.02;3.72;;;14.70;99.90;;;;;;5032233;28;20075;-94
2023/08/04 03:18:57;;;;;;;12.40;3.65;;;14.70;99.90;;;;;;5032237;28;20037;-93
2023/08/04 03:21:22;;;;;;;13.00;3.78;;;14.60;99.90;;;;;;5032898;28;20079;-94
2023/08/04 03:23:48;;;;;;;14.32;3.92;;;14.70;99.90;;;;;;5042907;28;20042;-92
2023/08/04 03:26:14;;;;;;;12.27;3.60;;;14.60;99.90;;;;;;5043364;28;20057;-93
2023/08/04 03:28:39;;;;;;;12.27;3.50;;;14.70;99.90;;;;;;5032684;28;20084;-93
2023/08/04 03:31:05;;;;;;;13.05;4.03;;;14.60;99.90;;;;;;5032159;28;20061;-93
2023/08/04 03:33:31;;;;;;;8.65;3.13;;;14.70;99.90;;;;;;5032068;28;20056;-94
2023/08/04 03:35:57;;;;;;;7.28;3.03;;;14.60;99.90;;;;;;5032434;28;20056;-93
2023/08/04 03:38:22;;;;;;;12.00;4.90;;;14.70;99.90;;;;;;5033959;28;20032;-92
2023/08/04 03:40:48;;;;;;;12.02;2.78;;;14.70;99.90;;;;;;5033661;28;20026;-92
2023/08/04 03:43:14;;;;;;;10.98;2.65;;;14.60;99.90;;;;;;5032271;28;20073;-94
2023/08/04 03:45:39;;;;;;;8.38;2.38;;;14.60;99.90;;;;;;5031581;28;20120;-93
2023/08/04 03:48:05;;;;;;;8.70;2.28;;;14.70;99.90;;;;;;5031802;28;20065;-94
2023/08/04 03:50:31;;;;;;;6.22;2.25;;;14.60;99.90;;;;;;5032626;28;20072;-93
2023/08/04 03:52:57;;;;;;;11.18;2.67;;;14.60;99.90;;;;;;5033264;28;20099;-94
2023/08/04 03:55:22;;;;;;;10.88;2.85;;;14.60;99.90;;;;;;5032822;28;20120;-93
2023/08/04 03:57:48;;;;;;;5.20;1.90;;;14.60;99.90;;;;;;5031687;28;20026;-93
2023/08/04 04:00:14;;;;;;;8.18;2.40;;;14.70;99.90;;;;;;5031569;28;20101;-93
2023/08/04 04:02:39;;;;;;;5.60;1.92;;;14.60;99.90;;;;;;5031577;28;20041;-93
2023/08/04 04:05:05;;;;;;;8.35;2.55;;;14.70;99.90;;;;;;5031586;28;20136;-93
2023/08/04 04:07:31;;;;;;;6.85;2.20;;;14.70;99.90;;;;;;5031944;28;20395;-93
2023/08/04 04:09:57;;;;;;;10.40;2.75;;;14.60;99.90;;;;;;5032488;28;20026;-93
2023/08/04 04:12:22;;;;;;;8.52;2.85;;;14.60;99.90;;;;;;5034969;28;20410;-93
2023/08/04 04:14:48;;;;;;;10.65;2.92;;;14.60;99.90;;;;;;5034786;28;20021;-93
2023/08/04 04:17:13;;;;;;;10.70;3.13;;;14.50;99.90;;;;;;5034987;28;20106;-93
2023/08/04 04:19:40;;;;;;;11.75;3.00;;;14.50;99.90;;;;;;5035157;28;20101;-94
2023/08/04 04:22:08;;;;;;;13.38;3.28;;;14.50;99.90;;;;;;5035304;28;20033;-93
2023/08/04 04:24:33;;;;;;;11.57;3.78;;;14.50;99.90;;;;;;5037822;28;20045;-92
2023/08/04 04:26:59;;;;;;;14.25;3.55;;;14.40;99.90;;;;;;5044135;28;20116;-93
2023/08/04 04:29:25;;;;;;;14.70;3.65;;;14.50;99.90;;;;;;5042853;28;20100;-92
2023/08/04 04:31:50;;;;;;;8.55;3.15;;;14.40;99.90;;;;;;5043316;28;20540;-93
2023/08/04 04:34:16;;;;;;;12.85;3.70;;;14.40;99.90;;;;;;5034839;28;20501;-92
2023/08/04 04:36:41;;;;;;;10.68;3.67;;;14.40;99.90;;;;;;5034623;28;20018;-93
2023/08/04 04:39:08;;;;;;;9.95;3.08;;;14.40;99.90;;;;;;5040361;28;20025;-92
2023/08/04 04:41:34;;;;;;;8.88;3.28;;;14.40;99.90;;;;;;5039166;28;20049;-92
2023/08/04 04:44:01;;;;;;;10.52;3.20;;;14.40;99.90;;;;;;5040419;28;20033;-92
2023/08/04 04:46:27;;;;;;;7.05;2.30;;;14.40;99.90;;;;;;5043396;28;20505;-91
2023/08/04 04:48:52;;;;;;;9.48;2.47;;;14.40;99.90;;;;;;5041302;28;20026;-92
2023/08/04 04:51:18;;;;;;;6.60;2.92;;;14.40;99.90;;;;;;5034695;28;20029;-92
2023/08/04 04:53:44;;;;;;;12.27;2.75;;;14.40;99.90;;;;;;5034572;28;20503;-92
2023/08/04 04:56:10;;;;;;;12.93;2.20;;;14.40;99.90;;;;;;5034388;28;20029;-92
2023/08/04 04:58:35;;;;;;;6.32;3.38;;;14.50;99.90;;;;;;5034589;28;20025;-92
2023/08/04 05:01:05;;;;;;;4.72;2.45;;;14.40;99.90;;;;;;5034450;28;20036;-94
2023/08/04 05:03:31;;;;;;;12.52;2.70;;;14.40;99.90;;;;;;5034423;28;20038;-93
2023/08/04 05:05:57;;;;;;;7.85;2.47;;;14.40;99.90;;;;;;5034694;28;20482;-92
2023/08/04 05:08:23;;;;;;;13.02;2.65;;;14.40;99.90;;;;;;5035172;28;20029;-92
2023/08/04 05:10:52;;;;;;;7.72;2.80;;;14.40;99.90;;;;;;5040583;28;20029;-93
2023/08/04 05:13:20;;;;;;;7.88;2.58;;;14.40;99.90;;;;;;5050348;28;20030;-93
2023/08/04 05:15:49;;;;;;;10.93;2.38;;;14.40;99.90;;;;;;5035008;28;20029;-93
2023/08/04 05:18:16;;;;;;;7.25;2.38;;;14.40;99.90;;;;;;5035512;28;20022;-91
2023/08/04 05:20:46;;;;;;;11.07;2.50;;;14.40;99.90;;;;;;5036796;28;20364;-91
2023/08/04 05:23:12;;;;;;;6.88;2.47;;;14.40;99.90;;;;;;5035758;28;20136;-92
2023/08/04 05:25:38;;;;;;;10.20;2.45;;;14.40;99.90;;;;;;5034882;28;20075;-92
2023/08/04 05:28:28;;;;;;;8.60;2.20;;;14.40;99.90;;;;;;5047183;28;20026;-92
2023/08/04 05:31:02;;;;;;;9.98;2.55;;;14.50;99.90;;;;;;5034460;28;20087;-93
2023/08/04 05:33:29;;;;;;;9.60;2.90;;;14.40;99.90;;;;;;5034272;28;20487;-92
2023/08/04 05:35:55;;;;;;;7.00;2.80;;;14.50;99.90;;;;;;5033909;28;20030;-92
2023/08/04 05:38:21;;;;;;;9.20;3.13;;;14.40;99.90;;;;;;5034092;28;20033;-93
2023/08/04 05:40:48;;;;;;;10.10;2.60;;;14.40;99.90;;;;;;5033419;28;20095;-92
2023/08/04 05:43:14;;;;;;;7.13;2.38;;;14.50;99.90;;;;;;5033431;28;20116;-93
2023/08/04 05:45:43;;;;;;;8.07;2.75;;;14.50;99.90;;;;;;5033390;28;20148;-92
2023/08/04 05:48:09;;;;;;;11.68;3.28;;;14.50;99.90;;;;;;5033846;28;20021;-91
2023/08/04 05:50:36;;;;;;;7.72;2.30;;;14.50;99.90;;;;;;5037137;28;20045;-92
2023/08/04 05:53:02;;;;;;;7.18;2.25;;;14.40;99.90;;;;;;5036326;28;20036;-91
2023/08/04 05:55:27;;;;;;;8.73;2.08;;;14.40;99.90;;;;;;5035698;28;20029;-93
2023/08/04 05:57:55;;;;;;;8.68;2.28;;;14.40;99.90;;;;;;5035164;28;20533;-93
2023/08/04 06:00:20;;;;;;;4.95;2.28;;;14.40;99.90;;;;;;5033734;28;20030;-93
2023/08/04 06:02:46;;;;;;;9.02;2.60;;;14.40;99.90;;;;;;5034066;28;20021;-91
2023/08/04 06:05:12;;;;;;;8.23;2.83;;;14.50;99.90;;;;;;5035420;28;20034;-92
2023/08/04 06:07:42;;;;;;;6.47;2.00;;;14.40;99.90;;;;;;5034653;28;20145;-91
2023/08/04 06:10:08;;;;;;;6.10;2.20;;;14.50;99.90;;;;;;5034918;28;20183;-91
2023/08/04 06:12:34;;;;;;;9.95;2.10;;;14.50;99.90;;;;;;5034031;28;20025;-92
2023/08/04 06:15:01;;;;;;;9.90;2.70;;;14.50;99.90;;;;;;5033202;28;20557;-93
2023/08/04 06:17:26;;;;;;;8.45;2.58;;;14.60;99.90;;;;;;5032933;28;20135;-91
2023/08/04 06:19:52;;;;;;;8.25;2.45;;;14.60;99.90;;;;;;5032759;28;20021;-92
2023/08/04 06:22:18;;;;;;;9.50;2.35;;;14.70;99.90;;;;;;5032482;28;20087;-92
2023/08/04 06:24:43;;;;;;;9.15;2.22;;;14.70;99.90;;;;;;5032724;28;20040;-92
2023/08/04 06:27:09;;;;;;;8.73;2.08;;;14.70;99.90;;;;;;5033163;28;20116;-92
2023/08/04 06:29:35;;;;;;;14.57;2.53;;;14.70;99.90;;;;;;5032899;28;20125;-92
2023/08/04 06:32:01;;;;;;;11.13;2.40;;;14.70;99.90;;;;;;5032248;28;20128;-91
2023/08/04 06:34:27;;;;;;;11.27;2.63;;;14.70;99.90;;;;;;5032593;28;20026;-92
2023/08/04 06:36:53;;;;;;;13.32;2.42;;;14.80;99.90;;;;;;5032375;28;20026;-92
2023/08/04 06:39:18;;;;;;;5.47;1.90;;;14.80;99.90;;;;;;5032347;28;20029;-91
2023/08/04 06:41:44;;;;;;;5.65;2.00;;;14.80;99.90;;;;;;5032728;28;20056;-92
2023/08/04 06:44:13;;;;;;;6.15;2.58;;;14.80;99.90;;;;;;5032561;28;20091;-91
2023/08/04 06:46:38;;;;;;;9.60;2.08;;;14.80;99.90;;;;;;5032733;28;20064;-91
2023/08/04 06:49:04;;;;;;;7.40;2.42;;;14.80;99.90;;;;;;5039091;28;20029;-92
2023/08/04 06:51:30;;;;;;;12.30;2.25;;;14.80;99.90;;;;;;5039741;28;20171;-92
2023/08/04 06:53:55;;;;;;;7.40;1.98;;;14.80;99.90;;;;;;5035508;28;20505;-94
2023/08/04 06:56:21;;;;;;;8.50;1.95;;;14.80;99.90;;;;;;5032552;28;20029;-91
2023/08/04 06:58:47;;;;;;;9.75;2.47;;;14.80;99.90;;;;;;5035438;28;20040;-92
2023/08/04 07:01:13;;;;;;;12.70;2.85;;;14.80;99.90;;;;;;5038745;28;20025;-91
2023/08/04 07:03:39;;;;;;;11.20;2.20;;;14.80;99.90;;;;;;5036408;28;20125;-92
2023/08/04 07:06:04;;;;;;;8.07;2.20;;;14.80;99.90;;;;;;5034129;28;20021;-91
2023/08/04 07:08:30;;;;;;;8.95;1.90;;;14.80;99.90;;;;;;5035722;28;20124;-92
2023/08/04 07:10:55;;;;;;;10.25;2.38;;;14.80;99.90;;;;;;5036035;28;20021;-93
2023/08/04 07:13:21;;;;;;;7.45;2.42;;;14.80;99.90;;;;;;5033572;28;20550;-94
2023/08/04 07:15:55;;;;;;;6.35;2.30;;;14.90;99.90;;;;;;5032263;28;20108;-93
2023/08/04 07:18:21;;;;;;;13.65;2.47;;;14.90;99.90;;;;;;5032023;28;20087;-93
2023/08/04 07:20:46;;;;;;;5.90;2.13;;;14.90;99.90;;;;;;5032695;28;20025;-93
2023/08/04 07:23:12;;;;;;;6.95;2.20;;;15.00;99.90;;;;;;5034542;28;20050;-93
2023/08/04 07:25:37;;;;;;;4.57;2.03;;;15.00;99.90;;;;;;5038101;28;20056;-92
2023/08/04 07:28:03;;;;;;;7.20;1.83;;;15.10;99.90;;;;;;5034507;28;20021;-93
2023/08/04 07:30:32;;;;;;;2.75;1.58;;;15.10;99.90;;;;;;5033474;28;20021;-93
2023/08/04 07:32:58;;;;;;;2.55;1.52;;;15.10;99.90;;;;;;5032445;28;20025;-93
2023/08/04 07:35:24;;;;;;;6.80;1.65;;;15.20;99.90;;;;;;5032072;28;20505;-93
2023/08/04 07:37:49;;;;;;;5.45;1.70;;;15.20;99.90;;;;;;5033039;28;20063;-92
2023/08/04 07:40:15;;;;;;;2.03;1.23;;;15.20;99.90;;;;;;5032131;28;20029;-93
2023/08/04 07:42:42;;;;;;;4.78;1.60;;;15.30;99.90;;;;;;5031948;28;20112;-93
2023/08/04 07:45:08;;;;;;;2.38;1.20;;;15.30;99.90;;;;;;5034653;28;20037;-94
2023/08/04 07:47:34;;;;;;;3.13;1.27;;;15.30;99.90;;;;;;5035653;28;20022;-93
2023/08/04 07:50:00;;;;;;;4.80;1.10;;;15.30;99.90;;;;;;5035925;28;20474;-93
2023/08/04 07:52:25;;;;;;;5.95;1.45;;;15.40;99.90;;;;;;5035772;28;20032;-92
2023/08/04 07:54:52;;;;;;;6.18;1.45;;;15.40;99.90;;;;;;5036081;28;20026;-93
2023/08/04 07:57:17;;;;;;;2.97;1.38;;;15.40;99.90;;;;;;5035619;28;20060;-92
2023/08/04 07:59:43;;;;;;;3.92;1.25;;;15.40;99.90;;;;;;5035927;28;20149;-93
2023/08/04 08:02:09;;;;;;;1.52;1.10;;;15.50;99.90;;;;;;5035774;28;20093;-93
2023/08/04 08:04:34;;;;;;;7.05;2.65;;;15.50;99.90;;;;;;5035939;28;20037;-92
2023/08/04 08:07:00;;;;;;;5.85;1.40;;;15.60;99.90;;;;;;5035399;28;20029;-93
2023/08/04 08:09:26;;;;;;;2.47;1.10;;;15.80;99.90;;;;;;5035876;28;20025;-93
2023/08/04 08:11:52;;;;;;;3.72;1.27;;;15.80;99.90;;;;;;5035451;28;20041;-94
2023/08/04 08:14:18;;;;;;;1.73;1.48;;;15.80;99.90;;;;;;5035281;28;20033;-92
2023/08/04 08:16:43;;;;;;;2.15;1.10;;;15.90;99.90;;;;;;5035199;28;20040;-93
2023/08/04 08:19:09;;;;;;;4.47;1.20;;;15.90;99.90;;;;;;5035246;28;20287;-93
2023/08/04 08:21:35;;;;;;;5.53;1.50;;;15.90;99.90;;;;;;5034915;28;20199;-93
2023/08/04 08:24:01;;;;;;;3.85;1.40;;;15.90;99.90;;;;;;5034869;28;20562;-93
2023/08/04 08:26:27;;;;;;;4.28;1.33;;;16.00;99.90;;;;;;5035214;28;20494;-93
2023/08/04 08:28:53;;;;;;;4.85;1.90;;;16.00;99.90;;;;;;5034792;28;20429;-94
2023/08/04 08:31:18;;;;;;;5.18;1.58;;;16.00;99.90;;;;;;5035123;28;20465;-94
2023/08/04 08:33:44;;;;;;;5.00;1.67;;;16.10;99.90;;;;;;5034786;28;20029;-94
2023/08/04 08:36:10;;;;;;;3.03;1.30;;;16.20;99.90;;;;;;5030854;28;20021;-92
2023/08/04 08:38:35;;;;;;;2.35;1.30;;;16.10;99.90;;;;;;5034078;28;20033;-92
2023/08/04 08:41:02;;;;;;;1.48;1.23;;;16.20;99.90;;;;;;5034013;28;20033;-92
2023/08/04 08:43:28;;;;;;;3.42;1.35;;;16.30;99.90;;;;;;5033677;28;20030;-90
2023/08/04 08:45:55;;;;;;;2.92;0.95;;;16.20;99.90;;;;;;5034487;28;20076;-92
2023/08/04 08:48:21;;;;;;;4.03;1.65;;;16.30;99.90;;;;;;5022340;28;20480;-91
2023/08/04 08:50:56;;;;;;;1.50;1.20;;;16.40;99.90;;;;;;5026840;28;20115;-90
2023/08/04 08:53:27;;;;;;;2.28;1.27;;;16.40;99.90;;;;;;5023369;28;20052;-92
2023/08/04 08:55:53;;;;;;;2.78;1.40;;;16.40;99.90;;;;;;5026862;28;20022;-91
2023/08/04 08:58:19;;;;;;;3.72;1.30;;;16.40;99.90;;;;;;5028463;28;20586;-91
2023/08/04 09:00:45;;;;;;;3.45;1.60;;;16.40;99.90;;;;;;5028404;28;20032;-91
2023/08/04 09:03:11;;;;;;;4.72;1.20;;;16.50;99.90;;;;;;5035431;28;20022;-91
2023/08/04 09:05:37;;;;;;;1.60;1.20;;;16.40;99.90;;;;;;5026848;28;20156;-92
2023/08/04 09:08:03;;;;;;;6.07;1.52;;;16.50;99.90;;;;;;5023521;28;20190;-93
2023/08/04 09:10:28;;;;;;;2.22;1.10;;;16.40;99.90;;;;;;5033447;28;20048;-93
2023/08/04 09:12:57;;;;;;;4.22;1.25;;;16.40;99.90;;;;;;5033261;28;20022;-94
2023/08/04 09:15:33;;;;;;;2.13;1.52;;;16.20;99.90;;;;;;5034630;28;20030;-94
2023/08/04 09:17:59;;;;;;;4.10;1.83;;;16.10;99.90;;;;;;5033870;28;20030;-94
2023/08/04 09:20:29;;;;;;;6.63;1.85;;;16.00;99.90;;;;;;5032418;28;20390;-94
2023/08/04 09:22:54;;;;;;;7.85;2.00;;;15.90;99.90;;;;;;5032319;28;20135;-94
2023/08/04 09:25:20;;;;;;;6.63;2.10;;;15.90;99.90;;;;;;5032187;28;20199;-94
2023/08/04 09:27:49;;;;;;;2.97;1.90;;;15.80;99.90;;;;;;5031879;28;20026;-94
2023/08/04 09:30:16;;;;;;;4.32;1.88;;;15.80;99.90;;;;;;5031987;28;20025;-95
2023/08/04 09:32:50;;;;;;;2.55;1.58;;;15.70;99.90;;;;;;5033118;28;20514;-94
2023/08/04 09:35:16;;;;;;;3.05;1.50;;;15.70;99.90;;;;;;5032128;28;20078;-94
2023/08/04 09:37:42;;;;;;;5.55;1.67;;;15.60;99.90;;;;;;5031940;28;20026;-94
2023/08/04 09:40:34;;;;;;;3.97;1.60;;;15.60;99.90;;;;;;5031865;28;20474;-93
2023/08/04 09:43:00;;;;;;;3.88;1.90;;;15.50;99.90;;;;;;5031398;28;20088;-94
2023/08/04 09:45:26;;;;;;;6.55;1.40;;;15.50;99.90;;;;;;5033622;28;20482;-95
2023/08/04 09:47:52;;;;;;;3.58;1.60;;;15.60;99.90;;;;;;5034223;28;20021;-94
2023/08/04 09:50:18;;;;;;;3.95;1.08;;;15.70;99.90;;;;;;5033754;28;20050;-94
2023/08/04 09:52:44;;;;;;;1.50;1.15;;;15.70;99.90;;;;;;5033569;28;20022;-95
2023/08/04 09:55:10;;;;;;;4.78;1.23;;;15.80;99.90;;;;;;5033735;28;20051;-94
2023/08/04 09:57:39;;;;;;;5.18;1.20;;;15.90;99.90;;;;;;5033693;28;20087;-94
2023/08/04 10:00:09;;;;;;;3.25;1.48;;;16.00;99.90;;;;;;5033609;28;20120;-93
2023/08/04 10:02:35;;;;;;;4.13;1.23;;;16.00;99.90;;;;;;5033188;28;20083;-94
2023/08/04 10:05:03;;;;;;;1.73;1.15;;;16.10;99.90;;;;;;5033097;28;20302;-93
2023/08/04 10:07:31;;;;;;;2.05;1.08;;;16.20;99.90;;;;;;5032258;28;20025;-93
2023/08/04 10:09:58;;;;;;;4.75;1.20;;;16.30;99.90;;;;;;5033267;28;20029;-94
2023/08/04 10:12:25;;;;;;;3.53;1.40;;;16.40;99.90;;;;;;5032838;28;20117;-93
2023/08/04 10:14:51;;;;;;;2.90;1.10;;;16.40;99.90;;;;;;5033233;28;20029;-94
2023/08/04 10:17:18;;;;;;;4.68;1.30;;;16.50;99.90;;;;;;5032544;28;20030;-93
2023/08/04 10:19:44;;;;;;;2.13;1.20;;;16.50;99.90;;;;;;5032824;28;20026;-93
2023/08/04 10:22:11;;;;;;;3.38;1.10;;;16.50;99.90;;;;;;5032940;28;20029;-93
2023/08/04 10:24:41;;;;;;;3.50;1.10;;;16.50;99.90;;;;;;5033241;28;20400;-94
2023/08/04 10:27:17;;;;;;;1.77;1.13;;;16.50;99.90;;;;;;5035725;28;20467;-92
2023/08/04 10:29:43;;;;;;;4.05;1.30;;;16.50;99.90;;;;;;5034073;28;20061;-93
2023/08/04 10:32:09;;;;;;;2.33;1.17;;;16.50;99.90;;;;;;5032814;28;20024;-93
2023/08/04 10:34:37;;;;;;;1.45;1.10;;;16.60;99.90;;;;;;5035453;28;20052;-94
2023/08/04 10:37:06;;;;;;;2.15;1.27;;;16.50;99.90;;;;;;5040342;28;20041;-95
2023/08/04 10:39:59;;;;;;;3.33;1.27;;;16.50;99.90;;;;;;5034714;28;20041;-94
2023/08/04 10:42:27;;;;;;;3.60;1.20;;;16.50;99.90;;;;;;5033405;28;20136;-94
2023/08/04 10:45:06;;;;;;;3.60;0.98;;;16.60;99.90;;;;;;5032439;28;20441;-94
2023/08/04 10:47:39;;;;;;;2.90;1.15;;;16.70;99.90;;;;;;5032518;28;20057;-93
2023/08/04 10:50:06;;;;;;;3.03;1.30;;;16.80;99.90;;;;;;5033181;28;20068;-93
2023/08/04 10:52:33;;;;;;;4.28;1.23;;;16.90;99.90;;;;;;5032730;28;20021;-94
2023/08/04 10:55:00;;;;;;;3.28;0.98;;;17.00;99.90;;;;;;5036037;28;20038;-94
2023/08/04 10:57:31;;;;;;;2.75;1.08;;;17.10;99.90;;;;;;5044267;28;20021;-93
2023/08/04 10:59:57;;;;;;;2.58;1.20;;;17.10;99.90;;;;;;5045198;28;20029;-93
2023/08/04 11:02:24;;;;;;;6.13;1.25;;;17.20;99.90;;;;;;5042002;28;20030;-94
2023/08/04 11:04:51;;;;;;;3.13;1.17;;;17.20;99.90;;;;;;5037329;28;20033;-94
2023/08/04 11:07:18;;;;;;;3.83;1.20;;;17.20;99.90;;;;;;5035563;28;20116;-94
2023/08/04 11:09:48;;;;;;;6.22;1.50;;;17.20;99.90;;;;;;5032991;28;20026;-94
2023/08/04 11:12:14;;;;;;;3.20;1.33;;;17.20;99.90;;;;;;5032300;28;20018;-93
2023/08/04 11:14:40;;;;;;;4.53;1.33;;;17.20;99.90;;;;;;5032215;28;20116;-93
2023/08/04 11:17:20;;;;;;;4.85;1.42;;;17.20;99.90;;;;;;5032602;28;20087;-93
2023/08/04 11:19:50;;;;;;;6.20;1.30;;;17.20;99.90;;;;;;5034965;28;20481;-94
2023/08/04 11:22:21;;;;;;;6.03;1.50;;;17.20;99.90;;;;;;5036661;28;20033;-94
2023/08/04 11:24:46;;;;;;;2.55;1.20;;;17.10;99.90;;;;;;5042096;28;20037;-94
2023/08/04 11:27:14;;;;;;;4.10;1.23;;;17.00;99.90;;;;;;5044855;28;20032;-92
2023/08/04 11:29:40;;;;;;;3.83;1.25;;;17.00;99.90;;;;;;5044583;28;20112;-93
2023/08/04 11:32:17;;;;;;;4.47;1.80;;;16.90;99.90;;;;;;5036511;28;20048;-93
2023/08/04 11:34:44;;;;;;;4.32;1.30;;;16.90;99.90;;;;;;5036197;28;20041;-93
2023/08/04 11:37:10;;;;;;;6.00;1.70;;;16.90;99.90;;;;;;5035994;28;20071;-94
2023/08/04 11:39:37;;;;;;;3.42;1.40;;;16.80;99.90;;;;;;5035818;28;20032;-94
2023/08/04 11:42:04;;;;;;;6.00;1.38;;;16.80;99.90;;;;;;5037996;28;20120;-94
2023/08/04 11:44:30;;;;;;;4.30;1.40;;;16.70;99.90;;;;;;5035977;28;20041;-94
2023/08/04 11:46:56;;;;;;;3.00;1.23;;;16.80;99.90;;;;;;5035882;28;20029;-94
2023/08/04 11:49:23;;;;;;;7.13;1.67;;;16.80;99.90;;;;;;5035933;28;20363;-94
2023/08/04 11:51:51;;;;;;;6.22;1.80;;;16.80;99.90;;;;;;5036565;28;20120;-94
2023/08/04 11:54:24;;;;;;;8.10;2.00;;;16.90;99.90;;;;;;5036189;28;20025;-94
2023/08/04 11:56:57;;;;;;;6.63;1.65;;;16.90;99.90;;;;;;5046366;28;20025;-94
2023/08/04 11:59:23;;;;;;;4.50;1.60;;;17.00;99.90;;;;;;5045671;28;20041;-93
2023/08/04 12:01:49;;;;;;;7.68;1.70;;;17.20;99.90;;;;;;5045594;28;20156;-94
2023/08/04 12:04:25;;;;;;;3.45;1.20;;;17.30;99.90;;;;;;5045369;28;20049;-93
2023/08/04 12:07:03;;;;;;;6.88;1.15;;;17.50;99.90;;;;;;5045317;28;20065;-94
2023/08/04 12:09:29;;;;;;;8.07;1.35;;;17.70;99.90;;;;;;5043021;28;20386;-95
2023/08/04 12:11:54;;;;;;;5.68;1.40;;;17.80;99.90;;;;;;5040135;28;20033;-94
2023/08/04 12:14:21;;;;;;;6.53;1.42;;;18.00;99.90;;;;;;5038561;28;20053;-93
2023/08/04 12:16:53;;;;;;;3.42;1.80;;;18.20;99.90;;;;;;5037400;28;20033;-93
2023/08/04 12:19:20;;;;;;;6.13;1.10;;;18.40;99.90;;;;;;5037139;28;20021;-93
2023/08/04 12:21:49;;;;;;;4.85;1.70;;;18.70;99.90;;;;;;5037833;28;20045;-94
2023/08/04 12:24:15;;;;;;;8.45;1.55;;;18.80;99.90;;;;;;5038624;28;20053;-93
2023/08/04 12:26:44;;;;;;;5.15;1.33;;;18.80;99.90;;;;;;5036322;28;20026;-93
2023/08/04 12:29:10;;;;;;;4.78;1.58;;;18.70;99.90;;;;;;5035525;28;20187;-93
2023/08/04 12:31:37;;;;;;;7.28;1.88;;;18.70;99.90;;;;;;5034580;28;20422;-94
2023/08/04 12:34:04;;;;;;;10.73;2.03;;;18.50;99.90;;;;;;5035174;28;20033;-93
2023/08/04 12:36:29;;;;;;;8.98;2.67;;;18.40;99.90;;;;;;5035763;28;20080;-93
2023/08/04 12:39:27;;;;;;;8.40;1.52;;;18.30;99.90;;;;;;5035511;28;20026;-93
2023/08/04 12:41:53;;;;;;;12.48;1.80;;;18.40;99.90;;;;;;5022415;28;20080;-93